Terminal Aerodrome Forecast
Issued by NWS Twin Cities, MN

Home | Current Version | Previous Version | Text Only | Print | Product List | Glossary On
Versions: 1 2 3 4 5 6 7 8 9 10 11 12 13 14 15 16 17 18 19
003
FTUS43 KMPX 170520
TAFSTC
TAF
KSTC 170520Z 1706/1806 29009KT P6SM SCT025
     FM171500 29012G19KT P6SM SKC
     FM180000 VRB03KT P6SM SCT150=

USA.gov is the U.S. government's official web portal to all federal, state and local government web resources and services.